Time;durP1;ratioP1;P1;durP2;ratioP2;P2;SDS_P1;SDS_P2;PMS_P1;PMS_P2;Temp;Humidity;BMP_temperature;BMP_pressure;BME280_temperature;BME280_humidity;BME280_pressure;Samples;Min_cycle;Max_cycle;Signal;HPM_P1;HPM_P2
2023/05/24 00:00:08;;;;;;;20.83;5.07;;;15.70;99.90;;;;;;5063607;28;20183;-86
2023/05/24 00:02:36;;;;;;;18.77;5.10;;;15.70;99.90;;;;;;5063949;28;20189;-84
2023/05/24 00:05:04;;;;;;;16.80;5.40;;;15.80;99.90;;;;;;5078413;28;20208;-86
2023/05/24 00:07:30;;;;;;;16.70;5.53;;;15.70;99.90;;;;;;5092479;28;20334;-82
2023/05/24 00:09:56;;;;;;;20.87;5.60;;;15.70;99.90;;;;;;5083876;28;20641;-84
2023/05/24 00:12:23;;;;;;;17.90;5.43;;;15.60;99.90;;;;;;5059114;28;20225;-84
2023/05/24 00:14:50;;;;;;;24.07;5.47;;;15.60;99.90;;;;;;5087164;28;20208;-83
2023/05/24 00:17:16;;;;;;;28.37;5.70;;;15.60;99.90;;;;;;5066498;28;20174;-86
2023/05/24 00:19:43;;;;;;;18.90;5.17;;;15.60;99.90;;;;;;5077842;28;20675;-85
2023/05/24 00:22:10;;;;;;;25.27;6.00;;;15.60;99.90;;;;;;5096368;27;20528;-83
2023/05/24 00:24:37;;;;;;;19.93;5.70;;;15.60;99.90;;;;;;5084019;28;20553;-84
2023/05/24 00:27:03;;;;;;;23.10;5.50;;;15.70;99.90;;;;;;5068434;28;20204;-86
2023/05/24 00:29:30;;;;;;;18.47;5.43;;;15.70;99.90;;;;;;5095339;27;22309;-86
2023/05/24 00:31:56;;;;;;;21.90;5.30;;;15.80;99.90;;;;;;5080858;28;20231;-85
2023/05/24 00:34:22;;;;;;;18.67;4.67;;;15.90;99.90;;;;;;5063067;28;20274;-85
2023/05/24 00:36:50;;;;;;;19.80;4.97;;;15.90;99.90;;;;;;5058036;28;20547;-84
2023/05/24 00:39:17;;;;;;;21.37;5.37;;;16.00;99.90;;;;;;5096860;27;20217;-86
2023/05/24 00:41:44;;;;;;;26.27;6.03;;;16.00;99.90;;;;;;5063540;28;21182;-85
2023/05/24 00:44:11;;;;;;;21.03;5.73;;;16.00;99.90;;;;;;5062345;28;20243;-83
2023/05/24 00:46:38;;;;;;;26.97;5.40;;;16.00;99.90;;;;;;5062605;28;20277;-85
2023/05/24 00:49:04;;;;;;;21.80;5.07;;;16.00;99.90;;;;;;5107459;27;20195;-85
2023/05/24 00:51:32;;;;;;;17.90;4.60;;;16.00;99.90;;;;;;5078277;28;20537;-86
2023/05/24 00:54:00;;;;;;;24.10;5.67;;;16.00;99.90;;;;;;5057999;28;20186;-85
2023/05/24 00:56:26;;;;;;;22.70;5.87;;;16.00;99.90;;;;;;5060890;28;20296;-83
2023/05/24 00:58:54;;;;;;;20.93;5.37;;;16.00;99.90;;;;;;5075981;28;20181;-84
2023/05/24 01:01:25;;;;;;;19.27;5.00;;;16.10;99.90;;;;;;5106070;27;20178;-85
2023/05/24 01:03:53;;;;;;;25.13;5.50;;;16.10;99.90;;;;;;5059349;28;20187;-86
2023/05/24 01:06:20;;;;;;;23.10;6.07;;;16.10;99.90;;;;;;5060209;28;20178;-85
2023/05/24 01:09:08;;;;;;;22.70;5.47;;;16.10;99.90;;;;;;5079754;28;20190;-82
2023/05/24 01:11:57;;;;;;;33.13;6.57;;;16.10;99.90;;;;;;5078768;28;20179;-85
2023/05/24 01:14:45;;;;;;;20.63;5.40;;;16.10;99.90;;;;;;5105234;27;20186;-85
2023/05/24 01:17:23;;;;;;;20.27;4.43;;;16.20;99.90;;;;;;5061617;28;20190;-82
2023/05/24 01:20:07;;;;;;;20.87;5.60;;;16.20;99.90;;;;;;5073018;28;20190;-84
2023/05/24 01:23:14;;;;;;;19.57;5.10;;;16.20;99.90;;;;;;5057838;28;20190;-85
2023/05/24 01:25:52;;;;;;;23.87;5.47;;;16.20;99.90;;;;;;5086484;27;20630;-83
2023/05/24 01:28:20;;;;;;;18.60;5.27;;;16.20;99.90;;;;;;5080007;28;20186;-82
2023/05/24 01:30:47;;;;;;;22.50;5.00;;;16.20;99.90;;;;;;5078434;28;20240;-84
2023/05/24 01:33:14;;;;;;;20.90;5.57;;;16.20;99.90;;;;;;5072119;28;20187;-82
2023/05/24 01:35:41;;;;;;;24.37;5.63;;;16.10;99.90;;;;;;5090252;28;20256;-85
2023/05/24 01:38:13;;;;;;;21.20;5.33;;;16.20;99.90;;;;;;5094520;27;20184;-83
2023/05/24 01:40:40;;;;;;;19.23;5.43;;;16.20;99.90;;;;;;5076657;28;20182;-84
2023/05/24 01:43:28;;;;;;;26.77;5.50;;;16.20;99.90;;;;;;5088470;28;20193;-81
2023/05/24 01:46:36;;;;;;;19.20;5.00;;;16.20;99.90;;;;;;5058651;28;20222;-85
2023/05/24 01:49:37;;;;;;;21.30;5.07;;;16.20;99.90;;;;;;5059058;28;20239;-84
2023/05/24 01:52:14;;;;;;;21.73;5.27;;;16.20;99.90;;;;;;5053959;28;20201;-83
2023/05/24 01:54:49;;;;;;;17.60;5.37;;;16.20;99.90;;;;;;5090946;28;20837;-85
2023/05/24 01:57:22;;;;;;;17.77;5.43;;;16.20;99.90;;;;;;5077472;28;20190;-85
2023/05/24 01:59:51;;;;;;;22.90;6.40;;;16.10;99.90;;;;;;5074955;28;20179;-84
2023/05/24 02:02:18;;;;;;;22.67;5.90;;;16.10;99.90;;;;;;5084506;28;20182;-84
2023/05/24 02:04:44;;;;;;;20.67;5.77;;;16.10;99.90;;;;;;5076166;28;20178;-84
2023/05/24 02:07:11;;;;;;;20.53;5.43;;;16.10;99.90;;;;;;5062237;28;20189;-84
2023/05/24 02:09:37;;;;;;;23.00;4.83;;;16.20;99.90;;;;;;5056068;28;20772;-84
2023/05/24 02:12:04;;;;;;;22.73;6.17;;;16.20;99.90;;;;;;5071629;28;20213;-83
2023/05/24 02:14:30;;;;;;;26.20;6.20;;;16.20;99.90;;;;;;5101479;27;20378;-85
2023/05/24 02:16:57;;;;;;;21.33;6.47;;;16.20;99.90;;;;;;5076376;28;20213;-86
2023/05/24 02:19:24;;;;;;;26.03;5.30;;;16.20;99.90;;;;;;5058913;28;20188;-84
2023/05/24 02:21:51;;;;;;;17.00;5.27;;;16.10;99.90;;;;;;5057414;28;20631;-84
2023/05/24 02:24:18;;;;;;;21.97;5.93;;;16.20;99.90;;;;;;5079301;28;20220;-85
2023/05/24 02:26:44;;;;;;;24.00;5.57;;;16.10;99.90;;;;;;5076649;28;20357;-84
2023/05/24 02:29:11;;;;;;;23.10;6.33;;;16.10;99.90;;;;;;5079475;28;20190;-84
2023/05/24 02:31:37;;;;;;;16.33;5.40;;;16.00;99.90;;;;;;5058837;28;20276;-84
2023/05/24 02:34:03;;;;;;;19.60;5.23;;;16.00;99.90;;;;;;5063699;28;20194;-85
2023/05/24 02:36:31;;;;;;;17.83;5.60;;;15.90;99.90;;;;;;5092886;27;20206;-84
2023/05/24 02:38:57;;;;;;;21.60;5.80;;;15.90;99.90;;;;;;5080343;28;20182;-85
2023/05/24 02:41:25;;;;;;;23.13;5.73;;;15.80;99.90;;;;;;5077176;28;20190;-85
2023/05/24 02:43:51;;;;;;;25.60;5.50;;;15.80;99.90;;;;;;5059411;28;20265;-82
2023/05/24 02:46:17;;;;;;;21.83;6.20;;;15.70;99.90;;;;;;5095313;27;20189;-82
2023/05/24 02:48:44;;;;;;;23.30;6.47;;;15.70;99.90;;;;;;5058025;28;20182;-85
2023/05/24 02:51:10;;;;;;;25.50;6.33;;;15.70;99.90;;;;;;5077700;28;20936;-81
2023/05/24 02:53:36;;;;;;;25.10;5.90;;;15.70;99.90;;;;;;5060911;28;20198;-84
2023/05/24 02:56:03;;;;;;;25.07;6.00;;;15.60;99.90;;;;;;5082017;28;21144;-81
2023/05/24 02:58:29;;;;;;;24.00;4.90;;;15.60;99.90;;;;;;5062109;28;20886;-85
2023/05/24 03:00:55;;;;;;;26.67;5.70;;;15.60;99.90;;;;;;5079831;28;20212;-83
2023/05/24 03:03:22;;;;;;;26.80;5.83;;;15.60;99.90;;;;;;5103923;27;20182;-82
2023/05/24 03:05:48;;;;;;;20.87;5.80;;;15.60;99.90;;;;;;5075700;28;20846;-85
2023/05/24 03:08:15;;;;;;;16.87;5.90;;;15.60;99.90;;;;;;5062827;28;20523;-82
2023/05/24 03:10:41;;;;;;;19.27;5.40;;;15.60;99.90;;;;;;5075859;28;20280;-80
2023/05/24 03:13:08;;;;;;;26.83;6.47;;;15.60;99.90;;;;;;5081662;28;20201;-82
2023/05/24 03:15:34;;;;;;;18.00;5.37;;;15.70;99.90;;;;;;5077072;28;20289;-85
2023/05/24 03:18:00;;;;;;;24.60;6.30;;;15.60;99.90;;;;;;5110792;27;20261;-81
2023/05/24 03:20:27;;;;;;;35.30;6.73;;;15.70;99.90;;;;;;5061319;28;20197;-84
2023/05/24 03:22:53;;;;;;;18.60;6.17;;;15.60;99.90;;;;;;5062929;28;20178;-85
2023/05/24 03:25:19;;;;;;;26.00;6.10;;;15.60;99.90;;;;;;5076382;28;20186;-83
2023/05/24 03:27:47;;;;;;;24.47;5.97;;;15.60;99.90;;;;;;5063172;28;20189;-82
2023/05/24 03:30:13;;;;;;;24.43;6.57;;;15.60;99.90;;;;;;5078147;28;20216;-82
2023/05/24 03:32:39;;;;;;;22.70;6.20;;;15.60;99.90;;;;;;5076200;28;20191;-82
2023/05/24 03:35:06;;;;;;;23.63;6.20;;;15.60;99.90;;;;;;5104512;27;20217;-82
2023/05/24 03:37:32;;;;;;;20.30;5.43;;;15.70;99.90;;;;;;5060200;28;20860;-82
2023/05/24 03:39:59;;;;;;;23.10;5.53;;;15.70;99.90;;;;;;5064453;28;22346;-82
2023/05/24 03:42:25;;;;;;;21.33;5.47;;;15.70;99.90;;;;;;5076576;28;20662;-81
2023/05/24 03:44:52;;;;;;;24.47;6.60;;;15.70;99.90;;;;;;5062546;28;20572;-82
2023/05/24 03:47:18;;;;;;;25.60;5.90;;;15.70;99.90;;;;;;5059082;28;20662;-82
2023/05/24 03:49:44;;;;;;;25.00;7.00;;;15.80;99.90;;;;;;5078837;28;20190;-82
2023/05/24 03:52:12;;;;;;;21.20;6.20;;;15.80;99.90;;;;;;5060461;28;20208;-85
2023/05/24 03:54:38;;;;;;;31.57;6.83;;;15.80;99.90;;;;;;5082233;28;20218;-84
2023/05/24 03:57:08;;;;;;;27.83;6.30;;;15.80;99.90;;;;;;5079201;28;20193;-83
2023/05/24 03:59:37;;;;;;;19.93;5.77;;;15.90;99.90;;;;;;5100427;27;20238;-85
2023/05/24 04:02:10;;;;;;;25.00;6.60;;;15.90;99.90;;;;;;5066623;28;20186;-85
2023/05/24 04:04:39;;;;;;;26.63;6.03;;;16.00;99.90;;;;;;5078389;28;20297;-85
2023/05/24 04:07:10;;;;;;;20.93;5.67;;;16.00;99.90;;;;;;5058685;28;20702;-84
2023/05/24 04:09:40;;;;;;;19.30;5.93;;;16.00;99.90;;;;;;5076205;28;20182;-83
2023/05/24 04:12:06;;;;;;;27.27;5.87;;;16.00;99.90;;;;;;5059076;28;20185;-84
2023/05/24 04:14:39;;;;;;;21.93;6.00;;;16.00;99.90;;;;;;5060192;28;20265;-83
2023/05/24 04:17:08;;;;;;;22.67;6.53;;;16.10;99.90;;;;;;5079878;28;20186;-85
2023/05/24 04:19:38;;;;;;;17.07;6.13;;;16.10;99.90;;;;;;5103548;27;20193;-85
2023/05/24 04:22:10;;;;;;;21.13;6.03;;;16.10;99.90;;;;;;5077329;28;20203;-84
2023/05/24 04:24:40;;;;;;;28.47;6.30;;;16.10;99.90;;;;;;5057564;28;20201;-84
2023/05/24 04:27:09;;;;;;;24.70;6.30;;;16.20;99.90;;;;;;5090943;28;20233;-84
2023/05/24 04:29:39;;;;;;;20.73;6.00;;;16.20;99.90;;;;;;5059418;28;20732;-85
2023/05/24 04:32:13;;;;;;;18.07;6.13;;;16.30;99.90;;;;;;5050734;28;20709;-84
2023/05/24 04:34:44;;;;;;;29.37;6.50;;;16.30;99.90;;;;;;5076173;28;20812;-84
2023/05/24 04:37:15;;;;;;;26.57;6.50;;;16.30;99.90;;;;;;5077365;28;20222;-85
2023/05/24 04:39:47;;;;;;;28.97;6.40;;;16.30;99.90;;;;;;5075897;28;20878;-84
2023/05/24 04:42:22;;;;;;;18.67;5.93;;;16.40;99.90;;;;;;5076588;28;20326;-83
2023/05/24 04:44:52;;;;;;;20.43;6.63;;;16.40;99.90;;;;;;5102878;27;20548;-83
2023/05/24 04:47:19;;;;;;;28.17;6.97;;;16.50;99.90;;;;;;5105331;27;20194;-81
2023/05/24 04:49:52;;;;;;;22.87;5.90;;;16.50;99.90;;;;;;5070031;28;20189;-84
2023/05/24 04:52:19;;;;;;;27.40;6.90;;;16.60;99.90;;;;;;5079251;28;20187;-84
2023/05/24 04:54:45;;;;;;;27.27;6.63;;;16.60;99.90;;;;;;5073059;28;20258;-82
2023/05/24 04:57:12;;;;;;;31.50;6.73;;;16.60;99.90;;;;;;5060501;28;20185;-84
2023/05/24 04:59:38;;;;;;;23.87;6.47;;;16.70;99.90;;;;;;5053155;28;20674;-84
2023/05/24 05:02:04;;;;;;;24.33;6.60;;;16.70;99.90;;;;;;5086094;28;20227;-83
2023/05/24 05:04:31;;;;;;;19.37;5.47;;;16.80;99.90;;;;;;5054678;28;20182;-84
2023/05/24 05:06:57;;;;;;;27.53;5.90;;;16.80;99.90;;;;;;5077609;28;20284;-85
2023/05/24 05:09:24;;;;;;;29.23;6.67;;;16.80;99.90;;;;;;5078225;28;20272;-85
2023/05/24 05:11:50;;;;;;;25.87;6.13;;;16.90;99.90;;;;;;5086756;27;20195;-85
2023/05/24 05:14:20;;;;;;;26.37;6.37;;;16.90;99.90;;;;;;5060874;28;20593;-84
2023/05/24 05:16:46;;;;;;;33.00;5.90;;;16.90;99.90;;;;;;5074630;28;20354;-83
2023/05/24 05:19:13;;;;;;;21.40;6.10;;;17.00;99.90;;;;;;5073088;28;20183;-83
2023/05/24 05:21:39;;;;;;;19.93;6.00;;;17.00;99.90;;;;;;5056332;28;20285;-85
2023/05/24 05:24:06;;;;;;;21.57;5.97;;;17.10;99.90;;;;;;5057396;28;20198;-84
2023/05/24 05:26:35;;;;;;;24.83;6.20;;;17.10;99.90;;;;;;5079003;28;20193;-85
2023/05/24 05:29:01;;;;;;;18.53;5.50;;;17.10;99.90;;;;;;5071422;28;20436;-83
2023/05/24 05:31:30;;;;;;;23.53;5.77;;;17.20;99.90;;;;;;5057260;28;20346;-85
2023/05/24 05:33:56;;;;;;;27.50;6.57;;;17.20;99.90;;;;;;5075216;28;20196;-83
2023/05/24 05:36:23;;;;;;;30.03;6.73;;;17.30;99.90;;;;;;5060003;28;20234;-84
2023/05/24 05:38:50;;;;;;;24.67;6.13;;;17.30;99.90;;;;;;5072754;28;20269;-83
2023/05/24 05:41:17;;;;;;;24.93;6.27;;;17.30;99.90;;;;;;5077355;28;20388;-84
2023/05/24 05:43:43;;;;;;;28.23;6.50;;;17.40;99.90;;;;;;5057860;28;20218;-84
2023/05/24 05:46:12;;;;;;;32.30;6.97;;;17.50;99.90;;;;;;5052569;28;20212;-84
2023/05/24 05:48:38;;;;;;;26.27;6.17;;;17.50;99.90;;;;;;5073229;28;20201;-84
2023/05/24 05:51:07;;;;;;;25.27;5.87;;;17.50;99.90;;;;;;5057798;28;20194;-83
2023/05/24 05:53:34;;;;;;;21.23;6.07;;;17.60;99.90;;;;;;5068725;28;20185;-84
2023/05/24 05:56:01;;;;;;;30.47;6.30;;;17.60;99.90;;;;;;5073516;28;20818;-85
2023/05/24 05:58:27;;;;;;;30.60;6.63;;;17.70;99.90;;;;;;5069762;28;20354;-84
2023/05/24 06:00:56;;;;;;;25.30;6.53;;;17.70;99.90;;;;;;5093060;28;20187;-84
2023/05/24 06:03:23;;;;;;;31.43;6.70;;;17.80;99.90;;;;;;5072397;28;20185;-84
2023/05/24 06:05:49;;;;;;;25.20;5.90;;;17.90;99.90;;;;;;5061380;28;20234;-84
2023/05/24 06:08:16;;;;;;;28.10;6.20;;;17.90;99.90;;;;;;5072959;28;20189;-85
2023/05/24 06:10:46;;;;;;;28.27;6.17;;;17.90;99.90;;;;;;5057852;28;20194;-86
2023/05/24 06:13:19;;;;;;;21.70;6.40;;;18.00;99.90;;;;;;5090391;28;20186;-84
2023/05/24 06:15:51;;;;;;;24.63;6.77;;;18.00;99.90;;;;;;5091922;28;20291;-85
2023/05/24 06:18:26;;;;;;;31.13;6.53;;;18.10;99.90;;;;;;5068308;28;20704;-86
2023/05/24 06:20:55;;;;;;;28.37;7.13;;;18.20;99.90;;;;;;5089659;28;20789;-85
2023/05/24 06:23:27;;;;;;;28.53;6.23;;;18.20;99.90;;;;;;5058947;28;20240;-84
2023/05/24 06:25:57;;;;;;;30.07;6.07;;;18.30;99.90;;;;;;5057708;28;20202;-85
2023/05/24 06:28:23;;;;;;;30.33;6.17;;;18.40;99.90;;;;;;5050633;28;20203;-84
2023/05/24 06:31:02;;;;;;;33.13;6.50;;;18.40;99.90;;;;;;5102028;27;20194;-85
2023/05/24 06:33:32;;;;;;;27.73;6.80;;;18.40;99.90;;;;;;5083145;28;20189;-86
2023/05/24 06:36:07;;;;;;;26.10;6.10;;;18.50;99.90;;;;;;5061583;28;20198;-85
2023/05/24 06:38:37;;;;;;;23.63;6.60;;;18.60;99.90;;;;;;5059170;28;20186;-86
2023/05/24 06:41:07;;;;;;;23.83;6.50;;;18.70;99.90;;;;;;5115369;28;20945;-87
2023/05/24 06:43:35;;;;;;;29.13;6.77;;;18.70;99.90;;;;;;5094783;28;20190;-88
2023/05/24 06:46:13;;;;;;;25.63;6.60;;;18.80;99.90;;;;;;5088081;28;20199;-88
2023/05/24 06:48:46;;;;;;;19.00;5.97;;;19.00;99.90;;;;;;5064004;28;20513;-89
2023/05/24 06:51:16;;;;;;;34.27;6.67;;;19.00;99.90;;;;;;5092810;28;20193;-88
2023/05/24 06:53:45;;;;;;;20.73;6.50;;;19.20;99.90;;;;;;5097338;28;20193;-83
2023/05/24 06:56:12;;;;;;;23.20;6.27;;;19.20;99.90;;;;;;5117011;27;20210;-84
2023/05/24 06:58:41;;;;;;;29.27;6.80;;;19.30;99.90;;;;;;5066319;28;20178;-84
2023/05/24 07:01:11;;;;;;;22.07;6.03;;;19.40;99.90;;;;;;5076856;28;20182;-87
2023/05/24 07:03:43;;;;;;;26.87;6.60;;;19.40;99.90;;;;;;5098740;28;20215;-85
2023/05/24 07:06:13;;;;;;;24.93;6.33;;;19.40;99.90;;;;;;5081767;28;20213;-88
2023/05/24 07:08:42;;;;;;;24.57;6.60;;;19.50;99.90;;;;;;5067480;28;20189;-85
2023/05/24 07:11:16;;;;;;;22.40;6.40;;;19.60;99.90;;;;;;5100471;28;20239;-87
2023/05/24 07:13:49;;;;;;;28.87;6.60;;;19.60;99.90;;;;;;5072607;28;20225;-84
2023/05/24 07:16:27;;;;;;;24.43;5.50;;;19.70;99.90;;;;;;5080667;28;20206;-83
2023/05/24 07:18:58;;;;;;;27.37;6.10;;;19.70;99.90;;;;;;5101172;28;20193;-85
2023/05/24 07:21:25;;;;;;;19.57;6.53;;;19.80;99.90;;;;;;5087706;28;20206;-89
2023/05/24 07:24:00;;;;;;;25.40;6.50;;;19.90;99.90;;;;;;5082751;28;20285;-86
2023/05/24 07:26:33;;;;;;;27.17;6.67;;;19.90;99.90;;;;;;5095837;28;20191;-82
2023/05/24 07:29:03;;;;;;;23.60;7.00;;;20.00;99.90;;;;;;5096084;28;20262;-86
2023/05/24 07:31:31;;;;;;;27.97;6.80;;;20.10;99.90;;;;;;5084308;28;20958;-85
2023/05/24 07:34:00;;;;;;;25.67;5.73;;;20.10;99.90;;;;;;5066913;28;20629;-86
2023/05/24 07:36:31;;;;;;;25.13;5.57;;;20.20;99.90;;;;;;5086503;28;20714;-86
2023/05/24 07:38:59;;;;;;;26.97;6.63;;;20.30;99.90;;;;;;5084400;28;20927;-86
2023/05/24 07:41:27;;;;;;;26.47;6.57;;;20.40;99.90;;;;;;5066718;28;20186;-89
2023/05/24 07:43:56;;;;;;;24.53;6.70;;;20.40;99.90;;;;;;5082947;28;20186;-84
2023/05/24 07:46:23;;;;;;;26.63;5.87;;;20.50;99.90;;;;;;5068137;28;20691;-87
2023/05/24 07:48:50;;;;;;;19.97;6.03;;;20.50;99.90;;;;;;5069025;28;20186;-85
2023/05/24 07:51:16;;;;;;;30.37;7.50;;;20.60;99.90;;;;;;5069605;28;20192;-86
2023/05/24 07:53:43;;;;;;;22.77;7.03;;;20.70;99.90;;;;;;5101006;27;20193;-84
2023/05/24 07:56:09;;;;;;;25.87;7.27;;;20.80;99.90;;;;;;5069561;28;20305;-84
2023/05/24 07:58:36;;;;;;;26.60;6.57;;;20.80;99.90;;;;;;5088387;28;20247;-86
2023/05/24 08:01:03;;;;;;;33.83;6.77;;;20.90;99.90;;;;;;5101764;28;20825;-84
2023/05/24 08:03:29;;;;;;;27.00;6.23;;;21.00;99.90;;;;;;5061516;28;20187;-89
2023/05/24 08:05:56;;;;;;;30.83;7.67;;;21.00;99.90;;;;;;5083531;28;21062;-85
2023/05/24 08:08:23;;;;;;;31.37;6.53;;;21.00;99.90;;;;;;5071402;28;20193;-83
2023/05/24 08:10:49;;;;;;;26.13;6.17;;;21.10;99.90;;;;;;5082110;28;20286;-85
2023/05/24 08:13:16;;;;;;;26.03;6.03;;;21.20;99.90;;;;;;5068058;28;20220;-84
2023/05/24 08:15:43;;;;;;;25.10;6.33;;;21.20;99.90;;;;;;5067284;28;20316;-88
2023/05/24 08:18:10;;;;;;;29.87;6.67;;;21.30;99.90;;;;;;5068678;28;20525;-88
2023/05/24 08:20:37;;;;;;;25.17;6.73;;;21.40;99.90;;;;;;5083519;28;20186;-84
2023/05/24 08:23:05;;;;;;;20.57;6.70;;;21.50;99.90;;;;;;5101154;28;20183;-86
2023/05/24 08:25:31;;;;;;;27.47;6.73;;;21.50;99.90;;;;;;5062907;28;20198;-85
2023/05/24 08:28:09;;;;;;;27.00;7.23;;;21.60;99.90;;;;;;5066184;28;20186;-87
2023/05/24 08:30:39;;;;;;;21.60;6.50;;;21.60;99.90;;;;;;5082197;28;20209;-89
2023/05/24 08:33:06;;;;;;;24.48;6.30;;;21.70;99.90;;;;;;5084668;28;20264;-86
2023/05/24 08:35:43;;;;;;;29.58;6.85;;;21.80;99.90;;;;;;5082654;28;20553;-83
2023/05/24 08:38:13;;;;;;;24.20;6.20;;;21.80;99.90;;;;;;5081647;28;20185;-86
2023/05/24 08:40:42;;;;;;;22.83;6.53;;;22.00;99.90;;;;;;5062555;28;20187;-87
2023/05/24 08:43:17;;;;;;;25.55;6.80;;;22.00;99.90;;;;;;5114549;27;20194;-86
2023/05/24 08:45:46;;;;;;;29.08;6.32;;;22.10;99.90;;;;;;5098089;28;20202;-81
2023/05/24 08:48:20;;;;;;;25.45;6.18;;;22.10;99.90;;;;;;5084150;28;20200;-83
2023/05/24 08:50:50;;;;;;;27.80;7.15;;;22.20;99.90;;;;;;5068538;28;20306;-86
2023/05/24 08:53:22;;;;;;;27.45;6.60;;;22.30;99.90;;;;;;5100193;28;20196;-83
2023/05/24 08:55:53;;;;;;;26.63;6.10;;;22.40;99.90;;;;;;5082764;28;20253;-85
2023/05/24 08:58:25;;;;;;;23.65;6.20;;;22.40;99.90;;;;;;5079593;28;20973;-85
2023/05/24 09:01:04;;;;;;;27.05;6.53;;;22.40;99.90;;;;;;5073640;28;20238;-86
2023/05/24 09:03:32;;;;;;;27.85;6.35;;;22.50;99.90;;;;;;5100893;28;20274;-85
2023/05/24 09:06:01;;;;;;;24.75;6.18;;;22.60;99.90;;;;;;5062218;28;20198;-86
2023/05/24 09:08:43;;;;;;;;;;;;;;;;;;;;;
2023/05/24 09:11:13;;;;;;;20.30;5.72;;;22.70;99.90;;;;;;5083416;28;20327;-89
2023/05/24 09:13:43;;;;;;;22.38;6.10;;;22.80;99.90;;;;;;5083218;28;20205;-87
2023/05/24 09:16:14;;;;;;;19.90;6.03;;;22.90;99.90;;;;;;5057731;28;20434;-90
2023/05/24 09:18:41;;;;;;;26.10;6.45;;;23.00;99.90;;;;;;5060954;28;20187;-85
2023/05/24 09:21:12;;;;;;;28.10;6.60;;;23.10;99.90;;;;;;5069547;28;20213;-84
2023/05/24 09:23:40;;;;;;;22.80;6.07;;;23.20;99.90;;;;;;5080090;28;20178;-87
2023/05/24 09:26:08;;;;;;;24.85;6.20;;;23.20;99.90;;;;;;5079999;28;20199;-89
2023/05/24 09:28:36;;;;;;;24.27;6.60;;;23.30;99.90;;;;;;5100126;28;20348;-89
2023/05/24 09:31:05;;;;;;;26.95;6.43;;;23.40;99.90;;;;;;5099588;28;20216;-83
2023/05/24 09:33:34;;;;;;;23.63;7.50;;;23.30;99.90;;;;;;5065927;28;20213;-85
2023/05/24 09:36:03;;;;;;;26.38;6.90;;;23.30;99.90;;;;;;5063420;28;20256;-85
2023/05/24 09:38:30;;;;;;;21.60;6.32;;;23.30;99.90;;;;;;5085286;28;20738;-84
2023/05/24 09:41:05;;;;;;;24.92;6.05;;;23.30;99.90;;;;;;5068705;28;20182;-86
2023/05/24 09:43:35;;;;;;;21.88;6.57;;;23.40;99.90;;;;;;5062427;28;20181;-87
2023/05/24 09:46:04;;;;;;;16.38;5.82;;;23.50;99.90;;;;;;5095810;28;20201;-85
2023/05/24 09:48:31;;;;;;;20.42;6.22;;;23.60;99.90;;;;;;5079476;28;20179;-86
2023/05/24 09:51:08;;;;;;;20.98;5.88;;;23.60;99.90;;;;;;5085067;28;20182;-86
2023/05/24 09:53:36;;;;;;;21.30;6.13;;;23.80;99.90;;;;;;5116170;27;20290;-86
2023/05/24 09:56:08;;;;;;;22.58;6.55;;;23.70;99.90;;;;;;5083034;28;20217;-88
2023/05/24 09:58:36;;;;;;;24.25;6.40;;;23.70;99.90;;;;;;5101257;28;20284;-86
2023/05/24 10:01:09;;;;;;;23.80;6.30;;;23.80;99.90;;;;;;5066651;28;20309;-88
2023/05/24 10:03:37;;;;;;;31.05;6.53;;;23.80;99.90;;;;;;5084418;28;20184;-89
2023/05/24 10:06:08;;;;;;;23.83;6.40;;;23.90;99.90;;;;;;5061798;28;20234;-88
2023/05/24 10:08:35;;;;;;;18.42;5.38;;;23.90;99.90;;;;;;5090410;28;20189;-84
2023/05/24 10:11:05;;;;;;;22.25;6.20;;;24.00;99.90;;;;;;5062680;28;20265;-86
2023/05/24 10:13:34;;;;;;;21.40;6.03;;;24.00;99.90;;;;;;5065455;28;20192;-88
2023/05/24 10:16:03;;;;;;;23.73;5.63;;;24.00;99.90;;;;;;5084238;28;20229;-87
2023/05/24 10:18:30;;;;;;;30.58;7.05;;;24.00;99.90;;;;;;5086507;28;20592;-86
2023/05/24 10:20:57;;;;;;;24.98;6.05;;;24.00;99.90;;;;;;5088259;28;20243;-86
2023/05/24 10:23:30;;;;;;;23.83;6.03;;;24.00;99.90;;;;;;5097606;28;20178;-86
2023/05/24 10:26:07;;;;;;;23.30;5.97;;;24.00;99.90;;;;;;5080877;28;20204;-85
2023/05/24 10:29:00;;;;;;;23.30;6.38;;;24.00;99.90;;;;;;5083140;28;20521;-85
2023/05/24 10:31:36;;;;;;;28.38;6.07;;;24.00;99.90;;;;;;5113116;28;20194;-85
2023/05/24 10:34:05;;;;;;;22.65;6.15;;;24.00;99.90;;;;;;5078953;28;20198;-85
2023/05/24 10:36:33;;;;;;;25.40;6.47;;;24.00;99.90;;;;;;5069040;28;20720;-86
2023/05/24 10:39:00;;;;;;;25.55;6.60;;;23.90;99.90;;;;;;5060567;28;20187;-89
2023/05/24 10:41:27;;;;;;;28.88;5.93;;;23.90;99.90;;;;;;5087605;28;20179;-84
2023/05/24 10:43:57;;;;;;;21.38;6.85;;;23.90;99.90;;;;;;5082977;28;20582;-83
2023/05/24 10:46:24;;;;;;;30.25;5.70;;;23.80;99.90;;;;;;5089624;28;20382;-84
2023/05/24 10:49:01;;;;;;;20.08;5.53;;;23.70;99.90;;;;;;5101216;28;20182;-89
2023/05/24 10:51:38;;;;;;;20.88;5.75;;;23.70;99.90;;;;;;5067949;28;20221;-84
2023/05/24 10:54:16;;;;;;;23.73;6.28;;;23.70;99.90;;;;;;5067532;28;20193;-85
2023/05/24 10:56:49;;;;;;;18.35;5.80;;;23.70;99.90;;;;;;5085683;28;20218;-89
2023/05/24 10:59:38;;;;;;;22.95;6.55;;;23.70;99.90;;;;;;5067783;28;20839;-86
2023/05/24 11:02:13;;;;;;;20.67;5.93;;;23.60;99.90;;;;;;5100975;28;20517;-87
2023/05/24 11:04:45;;;;;;;27.23;6.05;;;23.60;99.90;;;;;;5098727;27;20174;-89
2023/05/24 11:07:18;;;;;;;23.38;6.07;;;23.60;99.90;;;;;;5081464;28;20187;-83
2023/05/24 11:09:55;;;;;;;27.90;5.85;;;23.60;99.90;;;;;;5067676;28;20178;-88
2023/05/24 11:12:29;;;;;;;22.00;6.00;;;23.70;99.90;;;;;;5068136;28;20213;-88
2023/05/24 11:14:56;;;;;;;22.92;5.93;;;23.70;99.90;;;;;;5097991;28;21959;-89
2023/05/24 11:17:23;;;;;;;29.05;6.60;;;23.70;99.90;;;;;;5066102;28;20197;-86
2023/05/24 11:19:52;;;;;;;42.17;6.65;;;23.70;99.90;;;;;;5122369;27;20574;-90
2023/05/24 11:22:25;;;;;;;27.88;6.82;;;23.70;99.90;;;;;;5086271;28;20182;-89
2023/05/24 11:24:53;;;;;;;27.15;6.18;;;23.70;99.90;;;;;;5083450;28;20182;-87
2023/05/24 11:27:20;;;;;;;41.53;7.10;;;23.70;99.90;;;;;;5103479;28;20744;-88
2023/05/24 11:29:50;;;;;;;32.65;6.43;;;23.80;99.90;;;;;;5072881;28;20190;-85
2023/05/24 11:32:22;;;;;;;23.20;6.18;;;23.80;99.90;;;;;;5067435;28;20282;-85
2023/05/24 11:34:49;;;;;;;23.73;6.05;;;23.70;99.90;;;;;;5086452;28;20338;-85
2023/05/24 11:37:16;;;;;;;23.27;5.75;;;23.70;99.90;;;;;;5100555;28;20233;-88
2023/05/24 11:39:47;;;;;;;23.55;5.75;;;23.70;99.90;;;;;;5062172;28;20179;-85
2023/05/24 11:42:15;;;;;;;28.40;6.50;;;23.80;99.90;;;;;;5070239;28;20286;-86
2023/05/24 11:44:41;;;;;;;22.58;6.38;;;23.70;99.90;;;;;;5082820;28;20291;-86
2023/05/24 11:47:12;;;;;;;24.88;6.43;;;23.70;99.90;;;;;;5101035;28;20183;-84
2023/05/24 11:49:39;;;;;;;21.95;5.82;;;23.70;99.90;;;;;;5086235;28;20521;-86
2023/05/24 11:52:06;;;;;;;29.77;6.15;;;23.80;99.90;;;;;;5072604;28;20247;-88
2023/05/24 11:54:33;;;;;;;26.23;5.85;;;23.80;99.90;;;;;;5066066;28;20178;-82
2023/05/24 11:57:00;;;;;;;28.77;6.80;;;23.80;99.90;;;;;;5085542;28;20203;-85
2023/05/24 11:59:29;;;;;;;28.73;6.65;;;23.80;99.90;;;;;;5082427;28;20191;-84
2023/05/24 12:02:02;;;;;;;20.10;5.93;;;23.80;99.90;;;;;;5067788;28;20664;-85
2023/05/24 12:04:30;;;;;;;27.35;6.47;;;23.70;99.90;;;;;;5083985;28;20761;-87
2023/05/24 12:06:57;;;;;;;25.70;6.03;;;23.80;99.90;;;;;;5082343;28;20186;-82
2023/05/24 12:09:25;;;;;;;32.88;6.35;;;23.80;99.90;;;;;;5096826;28;20182;-85
2023/05/24 12:11:57;;;;;;;22.13;6.63;;;23.80;99.90;;;;;;5065593;28;20232;-88
2023/05/24 12:14:35;;;;;;;24.50;5.75;;;23.80;99.90;;;;;;5065402;28;20741;-85
2023/05/24 12:17:01;;;;;;;17.15;5.75;;;23.80;99.90;;;;;;5079062;28;20206;-87
2023/05/24 12:19:36;;;;;;;25.98;6.63;;;23.70;99.90;;;;;;5066958;28;20205;-85
2023/05/24 12:22:15;;;;;;;35.10;6.18;;;23.70;99.90;;;;;;5062981;28;20882;-87
2023/05/24 12:24:41;;;;;;;21.67;6.07;;;23.70;99.90;;;;;;5072371;28;20182;-87
2023/05/24 12:27:10;;;;;;;26.17;6.65;;;23.70;99.90;;;;;;5069365;28;20196;-88
2023/05/24 12:29:39;;;;;;;23.35;6.20;;;23.70;99.90;;;;;;5081684;28;20719;-88
2023/05/24 12:32:11;;;;;;;30.90;6.45;;;23.70;99.90;;;;;;5069390;28;20193;-88
2023/05/24 12:34:41;;;;;;;27.75;6.43;;;23.60;99.90;;;;;;5099911;28;20699;-86
2023/05/24 12:37:10;;;;;;;17.85;6.55;;;23.60;99.90;;;;;;5085716;28;20213;-87
2023/05/24 12:39:41;;;;;;;20.98;5.97;;;23.60;99.90;;;;;;5091295;28;20173;-89
2023/05/24 12:42:12;;;;;;;29.08;6.18;;;23.60;99.90;;;;;;5064856;28;20701;-87
2023/05/24 12:44:39;;;;;;;28.42;7.35;;;23.60;99.90;;;;;;5089033;28;20678;-85
2023/05/24 12:47:07;;;;;;;17.75;5.70;;;23.60;99.90;;;;;;5071235;28;20277;-87
2023/05/24 12:49:38;;;;;;;20.70;6.32;;;23.70;99.90;;;;;;5065717;28;20210;-86